Time;durP1;ratioP1;P1;durP2;ratioP2;P2;SDS_P1;SDS_P2;PMS_P1;PMS_P2;Temp;Humidity;BMP_temperature;BMP_pressure;BME280_temperature;BME280_humidity;BME280_pressure;Samples;Min_cycle;Max_cycle;Signal;HPM_P1;HPM_P2
2022/09/18 06:03:34;;;;;;;1.40;1.40;;;;;;;8.44;100.00;62871.38;5155045;22;1289363;-77
2022/09/18 06:06:01;;;;;;;0.93;0.93;;;;;;;8.47;100.00;62869.44;5085829;28;20235;-77
2022/09/18 06:08:28;;;;;;;1.13;1.13;;;;;;;8.52;100.00;62879.16;5071604;28;20217;-79
2022/09/18 06:10:54;;;;;;;1.50;1.17;;;;;;;8.34;100.00;62856.00;5051403;28;20194;-80
2022/09/18 06:13:21;;;;;;;0.95;0.95;;;;;;;8.30;100.00;62851.34;5051891;28;20229;-80
2022/09/18 06:15:51;;;;;;;1.27;1.27;;;;;;;8.46;100.00;62867.88;5055410;28;20209;-78
2022/09/18 06:18:18;;;;;;;1.48;1.38;;;;;;;8.45;100.00;62867.34;5063411;28;20213;-79
2022/09/18 06:20:53;;;;;;;0.95;0.95;;;;;;;8.52;100.00;62876.59;5069344;28;20201;-79
2022/09/18 06:23:20;;;;;;;1.50;1.40;;;;;;;8.37;100.00;62861.63;5049402;28;20241;-80
2022/09/18 06:25:47;;;;;;;1.08;1.08;;;;;;;8.35;100.00;62861.59;5050852;28;20233;-81
2022/09/18 06:28:14;;;;;;;0.98;0.98;;;;;;;8.36;100.00;62857.53;5061945;28;20233;-80
2022/09/18 06:30:40;;;;;;;1.17;1.00;;;;;;;8.38;100.00;62865.19;5052403;28;20236;-81
2022/09/18 06:33:10;;;;;;;1.52;1.42;;;;;;;8.52;100.00;62874.59;5060622;28;20248;-79
2022/09/18 06:35:38;;;;;;;0.93;0.93;;;;;;;8.56;100.00;62878.72;5066283;28;20508;-80
2022/09/18 06:38:07;;;;;;;1.00;1.00;;;;;;;8.68;100.00;62890.59;5056846;28;20533;-78
2022/09/18 06:40:34;;;;;;;2.13;1.23;;;;;;;8.71;100.00;62894.22;5057399;28;20220;-79
2022/09/18 06:43:02;;;;;;;1.38;1.23;;;;;;;8.77;100.00;62902.44;5067124;28;20225;-79
2022/09/18 06:45:30;;;;;;;1.15;1.15;;;;;;;8.94;100.00;62923.06;5052019;28;20197;-80
2022/09/18 06:48:01;;;;;;;0.93;0.93;;;;;;;9.07;100.00;62935.97;5063644;28;20233;-79
2022/09/18 06:50:28;;;;;;;0.85;0.85;;;;;;;9.07;100.00;62939.03;5051463;28;20193;-77
2022/09/18 06:52:55;;;;;;;0.95;0.95;;;;;;;9.13;100.00;62937.63;5057194;28;20268;-80
2022/09/18 06:55:24;;;;;;;2.33;1.05;;;;;;;8.96;100.00;62920.06;5063907;28;20209;-79
2022/09/18 06:57:54;;;;;;;1.20;1.10;;;;;;;9.03;100.00;62932.38;5047389;28;20217;-78
2022/09/18 07:00:21;;;;;;;1.00;1.00;;;;;;;8.95;100.00;62921.56;5062317;28;20198;-80
2022/09/18 07:02:55;;;;;;;0.82;0.82;;;;;;;8.97;100.00;62926.16;5051624;28;20265;-80
2022/09/18 07:05:22;;;;;;;0.50;0.50;;;;;;;8.97;100.00;62925.66;5066034;28;20213;-80
2022/09/18 07:07:49;;;;;;;1.05;1.05;;;;;;;9.12;100.00;62941.66;5055110;28;20233;-77
2022/09/18 07:10:15;;;;;;;1.02;1.00;;;;;;;9.29;100.00;62954.16;5068151;28;20201;-78
2022/09/18 07:12:47;;;;;;;1.15;1.05;;;;;;;9.21;100.00;62948.41;5068250;28;20247;-77
2022/09/18 07:15:14;;;;;;;1.13;0.93;;;;;;;9.07;100.00;62938.53;5070057;28;20197;-82
2022/09/18 07:17:41;;;;;;;1.95;1.13;;;;;;;8.98;100.00;62924.66;5058632;28;20213;-81
2022/09/18 07:20:08;;;;;;;0.50;0.50;;;;;;;8.97;100.00;62921.06;5063692;28;20200;-79
2022/09/18 07:22:35;;;;;;;0.75;0.75;;;;;;;8.92;100.00;62921.00;5061997;28;20255;-79
2022/09/18 07:25:02;;;;;;;2.15;1.40;;;;;;;9.03;100.00;62929.31;5068767;28;20197;-80
2022/09/18 07:27:29;;;;;;;0.88;0.88;;;;;;;9.21;100.00;62950.47;5068926;28;20233;-81
2022/09/18 07:30:08;;;;;;;1.00;1.00;;;;;;;9.35;100.00;62962.91;5052713;28;20197;-78
2022/09/18 07:32:35;;;;;;;1.00;1.00;;;;;;;9.57;100.00;62985.13;5062544;28;20540;-80
2022/09/18 07:35:02;;;;;;;0.98;0.98;;;;;;;9.71;100.00;63001.63;5063560;28;20201;-78
2022/09/18 07:37:29;;;;;;;0.82;0.82;;;;;;;9.68;100.00;62999.03;5066935;28;20296;-79
2022/09/18 07:39:55;;;;;;;0.77;0.77;;;;;;;9.83;100.00;63011.50;5063049;28;20431;-79
2022/09/18 07:42:22;;;;;;;0.80;0.80;;;;;;;10.10;100.00;63039.44;5060752;28;20214;-81
2022/09/18 07:44:49;;;;;;;1.05;1.05;;;;;;;10.35;100.00;63068.38;5056894;28;20205;-79
2022/09/18 07:47:17;;;;;;;0.85;0.85;;;;;;;10.30;99.84;63060.66;5064999;28;20232;-80
2022/09/18 07:49:44;;;;;;;4.40;1.20;;;;;;;10.44;98.51;63075.16;5065142;28;20201;-81
2022/09/18 07:52:11;;;;;;;0.70;0.70;;;;;;;10.76;96.89;63102.66;5067071;28;20286;-79
2022/09/18 07:54:38;;;;;;;0.73;0.73;;;;;;;10.94;96.10;63128.44;5062362;28;20493;-80
2022/09/18 07:57:05;;;;;;;0.85;0.85;;;;;;;10.83;95.56;63115.00;5068696;28;20244;-82
2022/09/18 07:59:32;;;;;;;0.82;0.82;;;;;;;10.96;95.57;63123.38;5055275;28;20194;-81
2022/09/18 08:01:59;;;;;;;0.70;0.70;;;;;;;11.16;96.01;63146.09;5045973;28;20260;-80
2022/09/18 08:04:27;;;;;;;0.70;0.70;;;;;;;10.79;96.30;63107.78;5057612;28;20243;-79
2022/09/18 08:06:56;;;;;;;0.80;0.80;;;;;;;10.99;96.49;63128.50;5059119;28;20494;-78
2022/09/18 08:09:24;;;;;;;0.80;0.80;;;;;;;11.15;92.54;63148.13;5063577;28;20201;-81
2022/09/18 08:11:52;;;;;;;0.80;0.80;;;;;;;11.30;91.35;63166.22;5066268;28;20267;-78
2022/09/18 08:14:19;;;;;;;0.80;0.80;;;;;;;11.49;91.19;63188.44;5064153;28;20198;-78
2022/09/18 08:16:46;;;;;;;0.60;0.60;;;;;;;11.59;87.75;63195.75;5060572;28;20221;-76
2022/09/18 08:19:13;;;;;;;0.60;0.60;;;;;;;11.62;89.03;63199.38;5056761;28;20218;-81
2022/09/18 08:21:41;;;;;;;0.80;0.80;;;;;;;11.72;87.89;63211.78;5047020;28;20202;-81
2022/09/18 08:24:08;;;;;;;0.60;0.60;;;;;;;11.65;88.50;63199.41;5065913;28;20236;-80
2022/09/18 08:26:37;;;;;;;0.90;0.88;;;;;;;11.72;87.96;63203.63;5066180;28;20229;-81
2022/09/18 08:29:04;;;;;;;0.90;0.90;;;;;;;11.80;86.10;63214.47;5069146;28;20385;-79
2022/09/18 08:31:31;;;;;;;0.68;0.68;;;;;;;11.56;88.31;63190.59;5056750;28;20514;-78
2022/09/18 08:33:57;;;;;;;0.60;0.60;;;;;;;11.73;88.66;63209.75;5061917;28;20202;-80
2022/09/18 08:36:24;;;;;;;0.90;0.90;;;;;;;11.75;90.18;63209.81;5064950;28;20202;-80
2022/09/18 08:38:54;;;;;;;0.73;0.73;;;;;;;11.95;89.21;63227.44;5066411;28;20410;-80
2022/09/18 08:41:44;;;;;;;0.63;0.63;;;;;;;11.76;89.44;63215.94;5066930;28;20209;-78
2022/09/18 08:44:16;;;;;;;0.75;0.75;;;;;;;11.72;87.15;63211.28;5062520;28;20197;-83
2022/09/18 08:46:48;;;;;;;0.70;0.70;;;;;;;11.76;88.48;63210.81;5067443;28;20233;-81
2022/09/18 08:49:23;;;;;;;0.77;0.77;;;;;;;11.76;86.63;63205.72;5063872;28;20213;-80
2022/09/18 08:51:55;;;;;;;0.68;0.68;;;;;;;11.63;88.21;63197.84;5046493;28;20328;-84
2022/09/18 08:54:35;;;;;;;0.73;0.52;;;;;;;11.49;86.76;63183.34;5055179;28;20202;-80
2022/09/18 08:57:07;;;;;;;0.77;0.77;;;;;;;11.62;89.63;63199.38;5055908;28;20251;-82
2022/09/18 08:59:39;;;;;;;1.02;0.60;;;;;;;11.72;87.73;63204.13;5067671;28;20248;-80
2022/09/18 09:02:25;;;;;;;0.50;0.50;;;;;;;11.83;85.47;63217.56;5065032;28;20225;-79
2022/09/18 09:04:58;;;;;;;0.65;0.65;;;;;;;12.03;81.07;63238.78;5064897;28;20201;-79
2022/09/18 09:07:39;;;;;;;0.50;0.50;;;;;;;11.82;79.41;63224.19;5051019;28;20233;-82
2022/09/18 09:10:23;;;;;;;0.57;0.57;;;;;;;11.69;83.16;63211.22;5046441;28;20209;-79
2022/09/18 09:12:59;;;;;;;0.70;0.70;;;;;;;11.68;83.44;63199.47;5052481;28;20526;-80
2022/09/18 09:15:35;;;;;;;0.52;0.52;;;;;;;11.99;82.01;63234.16;5059491;28;20224;-81
2022/09/18 09:18:15;;;;;;;0.43;0.43;;;;;;;12.19;85.11;63257.94;5060170;28;20244;-79
2022/09/18 09:20:51;;;;;;;0.80;0.80;;;;;;;11.98;86.83;63236.16;5056991;28;20212;-82
2022/09/18 09:23:50;;;;;;;0.55;0.52;;;;;;;11.44;88.08;63180.22;5062431;28;20214;-80
2022/09/18 09:26:22;;;;;;;0.95;0.85;;;;;;;11.37;90.51;63170.91;5049024;28;20197;-78
2022/09/18 09:28:58;;;;;;;0.90;0.90;;;;;;;11.34;90.81;63165.25;5059178;28;20248;-78
2022/09/18 09:31:27;;;;;;;0.88;0.88;;;;;;;11.25;91.94;63161.03;5062073;28;20213;-80
2022/09/18 09:34:00;;;;;;;1.00;1.00;;;;;;;11.40;92.53;63174.03;5055338;28;20233;-80
2022/09/18 09:36:30;;;;;;;1.40;0.77;;;;;;;11.52;92.46;63188.50;5047547;28;20240;-81
2022/09/18 09:39:04;;;;;;;1.33;1.33;;;;;;;11.78;90.11;63218.00;5048778;28;20205;-79
2022/09/18 09:41:37;;;;;;;0.73;0.70;;;;;;;11.77;89.98;63211.84;5053939;28;20215;-83
2022/09/18 09:44:20;;;;;;;0.57;0.57;;;;;;;11.84;88.10;63216.56;5049027;28;20210;-80
2022/09/18 09:46:55;;;;;;;0.60;0.60;;;;;;;11.97;85.67;63232.59;5066762;28;20232;-79
2022/09/18 09:49:25;;;;;;;0.70;0.70;;;;;;;12.15;86.67;63250.72;5050174;28;20209;-81
2022/09/18 09:52:01;;;;;;;0.70;0.70;;;;;;;12.50;86.02;63290.06;5052190;28;20222;-77
2022/09/18 09:54:28;;;;;;;4.25;0.80;;;;;;;12.48;81.63;63284.94;5067951;28;20226;-80
2022/09/18 09:57:03;;;;;;;1.40;1.40;;;;;;;12.45;81.28;63287.44;5057861;28;20234;-82
2022/09/18 09:59:40;;;;;;;2.50;1.38;;;;;;;12.64;76.19;63304.06;5068983;28;20254;-81
2022/09/18 10:02:29;;;;;;;2.10;1.58;;;;;;;12.73;74.73;63311.34;5053372;28;20221;-85
2022/09/18 10:05:03;;;;;;;1.38;1.33;;;;;;;12.97;74.98;63333.19;5047836;28;20205;-79
2022/09/18 10:07:37;;;;;;;1.45;1.45;;;;;;;12.89;68.81;63327.44;5057456;28;20240;-80
2022/09/18 10:10:16;;;;;;;1.80;1.70;;;;;;;12.91;71.15;63334.13;5072180;28;20203;-81
2022/09/18 10:12:51;;;;;;;1.73;1.63;;;;;;;12.75;71.55;63318.03;5072446;28;20217;-80
2022/09/18 10:15:22;;;;;;;1.88;1.80;;;;;;;12.49;74.48;63286.47;5069016;28;20389;-81
2022/09/18 10:17:55;;;;;;;2.17;1.80;;;;;;;12.57;75.08;63299.38;5070937;28;20221;-80
2022/09/18 10:20:26;;;;;;;3.22;2.00;;;;;;;12.90;69.68;63328.47;5071943;28;20247;-81
2022/09/18 10:22:55;;;;;;;1.55;1.55;;;;;;;13.09;71.59;63348.22;5053175;28;20224;-81
2022/09/18 10:25:29;;;;;;;2.20;2.10;;;;;;;13.12;69.39;63350.78;5070320;28;20204;-80
2022/09/18 10:27:57;;;;;;;1.95;1.85;;;;;;;12.97;71.45;63340.34;5058148;28;20229;-81
2022/09/18 10:30:25;;;;;;;2.40;2.10;;;;;;;13.12;71.07;63348.25;5070069;28;20204;-81
2022/09/18 10:32:54;;;;;;;2.97;2.78;;;;;;;13.22;68.35;63361.69;5072751;28;20213;-79
2022/09/18 10:35:41;;;;;;;2.40;2.20;;;;;;;13.04;71.08;63342.50;5072005;28;20469;-80
2022/09/18 10:38:26;;;;;;;2.60;2.40;;;;;;;13.37;69.95;63376.75;5068437;28;20239;-79
2022/09/18 10:40:53;;;;;;;2.20;2.10;;;;;;;13.32;69.18;63366.94;5055058;28;21503;-80
2022/09/18 10:44:19;;;;;;;2.95;2.80;;;;;;;13.13;70.93;63354.91;5073539;28;20221;-82
2022/09/18 10:47:06;;;;;;;3.08;2.70;;;;;;;13.11;74.79;63347.72;4976294;28;20220;-77
2022/09/18 10:49:36;;;;;;;3.10;2.90;;;;;;;13.01;73.50;63337.31;5068937;28;20193;-81
2022/09/18 10:52:30;;;;;;;3.30;3.10;;;;;;;12.91;73.68;63326.44;5059147;28;20221;-81
2022/09/18 10:54:59;;;;;;;3.30;3.10;;;;;;;13.20;75.22;63362.16;5069007;28;20205;-80
2022/09/18 10:57:29;;;;;;;2.80;2.70;;;;;;;12.96;73.62;63337.25;5073159;28;20236;-82
2022/09/18 10:59:59;;;;;;;2.97;2.78;;;;;;;12.79;74.22;63320.16;5065577;28;20198;-81
2022/09/18 11:02:29;;;;;;;4.03;3.67;;;;;;;13.13;74.12;63354.91;5055749;28;20238;-83
2022/09/18 11:04:58;;;;;;;4.55;3.50;;;;;;;13.11;71.33;63350.28;5074646;28;20528;-81
2022/09/18 11:07:26;;;;;;;3.78;3.47;;;;;;;13.14;73.15;63352.88;5059020;28;20222;-83
2022/09/18 11:09:56;;;;;;;3.53;3.33;;;;;;;13.26;73.74;63368.41;5060696;28;20206;-80
2022/09/18 11:12:26;;;;;;;3.75;3.53;;;;;;;13.22;74.02;63364.25;5072595;28;20217;-82
2022/09/18 11:15:01;;;;;;;4.18;3.97;;;;;;;13.20;73.81;63356.56;5055050;28;20202;-80
2022/09/18 11:17:31;;;;;;;3.72;3.53;;;;;;;12.99;72.96;63337.81;5058055;28;20237;-80
2022/09/18 11:20:01;;;;;;;3.35;3.15;;;;;;;12.79;73.84;63317.06;5057816;28;20224;-80
2022/09/18 11:22:39;;;;;;;3.10;2.90;;;;;;;12.80;71.43;63323.22;5056085;28;20216;-80
2022/09/18 11:25:28;;;;;;;3.70;3.40;;;;;;;12.95;69.60;63335.69;5052143;28;20500;-82
2022/09/18 11:27:57;;;;;;;4.40;4.07;;;;;;;12.88;70.72;63328.44;5062804;28;20268;-80
2022/09/18 11:30:27;;;;;;;3.33;3.17;;;;;;;12.78;72.53;63316.56;5059418;28;20194;-81
2022/09/18 11:32:59;;;;;;;3.97;3.78;;;;;;;12.91;71.46;63326.44;5066986;28;20213;-81
2022/09/18 11:35:29;;;;;;;2.92;2.83;;;;;;;12.87;70.24;63329.97;5055695;28;20222;-79
2022/09/18 11:38:05;;;;;;;3.03;2.90;;;;;;;12.99;71.58;63342.94;5067657;28;20222;-81
2022/09/18 11:40:41;;;;;;;3.33;3.15;;;;;;;12.86;73.90;63323.81;5053420;28;20197;-81
2022/09/18 11:43:32;;;;;;;3.17;2.97;;;;;;;12.70;72.50;63312.84;5071816;28;20253;-80
2022/09/18 11:46:16;;;;;;;2.92;2.83;;;;;;;12.78;72.22;63319.13;5075076;28;20393;-80
2022/09/18 11:48:47;;;;;;;2.67;2.58;;;;;;;12.83;74.27;63323.78;5060390;28;20225;-81
2022/09/18 11:51:19;;;;;;;2.63;2.53;;;;;;;12.85;73.40;63320.75;5064737;28;20212;-82
2022/09/18 11:53:50;;;;;;;3.25;3.05;;;;;;;12.90;74.15;63325.41;5070089;28;20227;-82
2022/09/18 11:56:29;;;;;;;2.72;2.63;;;;;;;13.07;73.03;63346.13;5069030;28;20196;-81
2022/09/18 11:59:02;;;;;;;2.53;2.28;;;;;;;12.73;74.28;63313.41;5036599;28;20190;-82
2022/09/18 12:01:37;;;;;;;2.78;2.22;;;;;;;12.79;75.13;63317.06;5049470;28;20270;-81
2022/09/18 12:04:10;;;;;;;3.38;2.70;;;;;;;12.72;75.24;63309.81;5044744;28;20268;-78
2022/09/18 12:06:47;;;;;;;3.00;2.90;;;;;;;12.72;76.32;63315.44;5047189;28;20201;-79
2022/09/18 12:09:20;;;;;;;3.47;2.70;;;;;;;12.62;76.95;63302.53;5053350;28;20225;-79
2022/09/18 12:11:58;;;;;;;2.58;2.47;;;;;;;12.62;75.19;63305.06;5053455;28;20224;-83
2022/09/18 12:14:32;;;;;;;2.63;2.42;;;;;;;12.80;74.38;63316.06;5055679;28;20221;-83
2022/09/18 12:17:05;;;;;;;2.35;2.25;;;;;;;12.57;72.44;63299.38;5037411;28;20218;-81
2022/09/18 12:19:37;;;;;;;4.63;2.88;;;;;;;12.82;76.17;63320.19;5036231;28;20506;-79
2022/09/18 12:22:11;;;;;;;2.67;2.58;;;;;;;12.91;72.65;63326.44;5040692;28;20213;-82
2022/09/18 12:24:38;;;;;;;2.47;2.33;;;;;;;12.84;72.70;63324.31;5041610;28;20199;-83
2022/09/18 12:27:27;;;;;;;2.50;2.40;;;;;;;12.55;77.18;63292.72;5037184;28;20214;-81
2022/09/18 12:30:07;;;;;;;2.90;2.70;;;;;;;12.95;75.56;63338.25;5044900;28;20228;-82
2022/09/18 12:32:57;;;;;;;3.60;2.85;;;;;;;13.17;72.78;63355.97;5039912;28;20462;-82
2022/09/18 12:35:33;;;;;;;2.83;2.70;;;;;;;13.50;68.37;63390.22;5041213;28;20195;-80
2022/09/18 12:38:13;;;;;;;3.25;2.95;;;;;;;13.40;65.87;63382.94;5043117;28;20281;-83
2022/09/18 12:41:00;;;;;;;2.30;2.20;;;;;;;13.54;62.11;63391.81;5047896;28;20197;-80
2022/09/18 12:43:44;;;;;;;2.13;2.03;;;;;;;13.56;60.54;63399.00;5038401;28;20228;-82
2022/09/18 12:46:29;;;;;;;2.53;1.83;;;;;;;13.51;61.63;63393.81;5038618;28;20195;-81
2022/09/18 12:49:13;;;;;;;1.98;1.88;;;;;;;13.47;60.88;63390.19;5033482;28;20306;-81
2022/09/18 12:51:44;;;;;;;1.50;1.50;;;;;;;13.34;63.13;63379.25;5046680;28;20201;-81
2022/09/18 12:54:27;;;;;;;2.10;1.67;;;;;;;13.36;61.92;63373.13;5047204;28;20194;-81
2022/09/18 12:57:07;;;;;;;1.55;1.45;;;;;;;13.47;61.63;63390.19;5046849;28;20229;-82
2022/09/18 12:59:47;;;;;;;1.80;1.70;;;;;;;13.61;61.44;63396.53;5044747;28;20212;-78
2022/09/18 13:02:28;;;;;;;1.33;1.33;;;;;;;13.43;61.36;63382.97;5047217;28;20217;-81
2022/09/18 13:05:02;;;;;;;2.35;1.50;;;;;;;13.68;59.40;63414.53;5045568;28;20241;-79
2022/09/18 13:07:34;;;;;;;1.20;1.20;;;;;;;13.69;56.95;63407.38;5045893;28;20699;-78
2022/09/18 13:10:07;;;;;;;4.13;1.73;;;;;;;13.91;57.13;63433.28;5036572;28;20198;-83
2022/09/18 13:12:37;;;;;;;1.33;1.33;;;;;;;14.16;56.23;63460.78;5047321;28;20218;-82
2022/09/18 13:15:14;;;;;;;3.08;1.10;;;;;;;14.13;53.18;63455.09;5031321;28;20214;-81
2022/09/18 13:17:45;;;;;;;1.20;1.20;;;;;;;14.32;52.30;63472.28;5025554;28;20466;-78
2022/09/18 13:20:20;;;;;;;0.90;0.90;;;;;;;14.55;52.04;63503.84;5034685;28;20198;-79
2022/09/18 13:22:49;;;;;;;0.90;0.90;;;;;;;14.58;50.16;63499.28;5040526;28;20298;-81
2022/09/18 13:25:25;;;;;;;1.20;1.20;;;;;;;14.63;51.57;63512.69;5046289;28;20272;-82
2022/09/18 13:27:54;;;;;;;1.15;1.15;;;;;;;14.44;52.32;63485.28;5047423;28;20521;-81
2022/09/18 13:30:26;;;;;;;2.30;1.55;;;;;;;14.06;53.76;63450.91;5041111;28;20269;-78
2022/09/18 13:32:55;;;;;;;1.00;1.00;;;;;;;13.88;54.55;63429.66;5038322;28;20228;-81
2022/09/18 13:35:26;;;;;;;1.00;1.00;;;;;;;13.62;54.97;63398.09;5041681;28;20553;-77
2022/09/18 13:38:13;;;;;;;2.03;1.83;;;;;;;13.55;56.68;63395.94;5030657;28;20436;-80
2022/09/18 13:40:43;;;;;;;1.00;1.00;;;;;;;13.66;56.87;63409.38;5025702;28;20425;-79
2022/09/18 13:43:33;;;;;;;1.98;1.38;;;;;;;13.80;55.86;63426.47;5043659;28;20224;-79
2022/09/18 13:46:02;;;;;;;1.35;1.02;;;;;;;14.00;55.32;63444.69;5048698;28;20289;-79
2022/09/18 13:48:35;;;;;;;1.25;1.15;;;;;;;14.19;55.02;63456.72;5038941;28;20557;-79
2022/09/18 13:51:05;;;;;;;0.98;0.93;;;;;;;14.09;55.58;63456.06;5046970;28;20351;-79
2022/09/18 13:53:40;;;;;;;1.17;1.17;;;;;;;14.36;54.30;63481.56;5049795;28;20288;-79
2022/09/18 13:56:09;;;;;;;0.95;0.95;;;;;;;14.34;55.77;63482.56;5046784;28;20229;-80
2022/09/18 13:58:51;;;;;;;0.98;0.98;;;;;;;14.74;53.40;63518.97;5048174;28;20226;-80
2022/09/18 14:01:55;;;;;;;1.02;1.02;;;;;;;14.91;53.96;63539.22;5043500;28;20485;-78
2022/09/18 14:04:57;;;;;;;0.93;0.93;;;;;;;14.95;52.25;63537.72;5041378;28;20262;-80
2022/09/18 14:07:53;;;;;;;1.73;1.35;;;;;;;14.86;52.78;63534.00;5050449;28;20218;-79
2022/09/18 14:10:25;;;;;;;1.20;1.20;;;;;;;14.86;54.37;63539.16;5048961;28;20202;-81
2022/09/18 14:13:30;;;;;;;1.90;1.13;;;;;;;14.54;54.51;63495.66;5048504;28;20289;-80
2022/09/18 14:16:06;;;;;;;1.98;1.65;;;;;;;14.14;57.30;63456.66;5021493;28;20269;-82
2022/09/18 14:18:36;;;;;;;1.08;1.08;;;;;;;14.06;56.96;63448.34;5044668;28;20233;-78
2022/09/18 14:21:19;;;;;;;1.00;1.00;;;;;;;14.16;57.57;63453.09;5042950;28;20289;-79
2022/09/18 14:24:35;;;;;;;1.10;1.10;;;;;;;14.71;53.55;63515.34;5049462;28;20221;-82
2022/09/18 14:27:30;;;;;;;1.40;1.30;;;;;;;14.97;52.39;63545.44;5042640;28;20291;-79
2022/09/18 14:30:00;;;;;;;1.38;1.27;;;;;;;15.27;51.98;63573.53;5040365;28;20225;-79
2022/09/18 14:32:28;;;;;;;1.30;1.20;;;;;;;15.28;50.39;63571.47;5041033;28;20222;-79
2022/09/18 14:35:21;;;;;;;1.73;1.13;;;;;;;15.47;49.73;63593.81;5042062;28;20233;-77
2022/09/18 14:37:48;;;;;;;0.80;0.80;;;;;;;15.42;47.63;63588.63;5049476;28;20458;-78
2022/09/18 14:40:20;;;;;;;2.25;0.98;;;;;;;15.42;47.88;63591.19;5049957;28;20260;-79
2022/09/18 14:42:48;;;;;;;0.90;0.90;;;;;;;15.36;48.16;63584.94;5049201;28;20221;-77
2022/09/18 14:45:24;;;;;;;1.10;1.10;;;;;;;15.32;48.61;63581.31;5046240;28;20354;-77
2022/09/18 14:47:51;;;;;;;0.90;0.90;;;;;;;15.23;49.01;63571.41;5039475;28;20520;-79
2022/09/18 14:50:31;;;;;;;0.90;0.90;;;;;;;15.47;48.52;63596.38;5047247;28;20233;-78
2022/09/18 14:52:59;;;;;;;1.90;1.25;;;;;;;15.74;48.09;63619.84;5050630;28;20286;-80
2022/09/18 14:55:34;;;;;;;2.38;1.33;;;;;;;15.01;49.58;63543.97;5046417;28;20328;-79
2022/09/18 14:58:05;;;;;;;0.93;0.93;;;;;;;15.22;47.36;63568.31;5052060;28;20555;-76
2022/09/18 15:00:34;;;;;;;1.17;1.08;;;;;;;14.92;48.14;63540.25;5046332;28;20494;-79
2022/09/18 15:03:06;;;;;;;0.90;0.90;;;;;;;15.17;47.46;63560.06;5046543;28;20240;-79
2022/09/18 15:05:34;;;;;;;1.10;1.10;;;;;;;15.18;47.82;63564.19;5047942;28;20355;-78
2022/09/18 15:08:04;;;;;;;1.08;1.08;;;;;;;14.71;49.58;63518.44;5032003;28;20218;-78
2022/09/18 15:10:34;;;;;;;0.60;0.60;;;;;;;15.08;48.88;63554.31;5027914;28;20198;-79
2022/09/18 15:13:04;;;;;;;2.25;0.82;;;;;;;15.12;48.97;63560.50;5041406;28;20348;-77
2022/09/18 15:15:33;;;;;;;1.23;1.23;;;;;;;15.11;49.28;63554.34;5045361;28;20229;-79
2022/09/18 15:18:01;;;;;;;1.15;1.05;;;;;;;14.16;51.79;63460.78;5036799;28;20229;-77
2022/09/18 15:20:29;;;;;;;1.70;1.60;;;;;;;13.99;53.34;63443.13;5034549;28;20237;-78
2022/09/18 15:22:56;;;;;;;1.75;1.65;;;;;;;14.00;54.04;63439.56;5034842;28;20257;-78
2022/09/18 15:25:29;;;;;;;1.75;1.65;;;;;;;13.91;55.10;63432.78;5045117;28;20205;-77
2022/09/18 15:28:01;;;;;;;1.58;1.17;;;;;;;13.87;55.16;63429.13;5045466;28;20222;-77
2022/09/18 15:30:28;;;;;;;3.78;1.42;;;;;;;13.79;55.96;63423.41;5028528;28;20234;-78
2022/09/18 15:33:00;;;;;;;1.77;1.60;;;;;;;13.78;55.51;63416.72;5028078;28;20210;-79
2022/09/18 15:35:32;;;;;;;1.95;1.70;;;;;;;13.75;56.32;63414.13;5046047;28;20206;-78
2022/09/18 15:38:01;;;;;;;3.55;2.63;;;;;;;13.61;56.98;63402.16;5040975;28;20226;-78
2022/09/18 15:40:31;;;;;;;1.77;1.67;;;;;;;13.56;58.09;63396.97;5044796;28;20202;-77
2022/09/18 15:43:02;;;;;;;1.95;1.77;;;;;;;13.31;59.66;63367.94;5043768;28;20214;-75
2022/09/18 15:45:31;;;;;;;1.58;1.48;;;;;;;13.09;61.16;63347.69;5032354;28;20241;-77
2022/09/18 15:48:00;;;;;;;3.08;1.30;;;;;;;13.05;62.03;63344.06;5035241;28;20222;-76
2022/09/18 15:50:39;;;;;;;2.65;1.70;;;;;;;12.86;62.93;63328.94;5047417;28;20230;-78
2022/09/18 15:53:23;;;;;;;1.42;1.33;;;;;;;12.82;63.52;63320.19;5052032;28;20206;-76
2022/09/18 15:55:57;;;;;;;2.05;1.52;;;;;;;12.48;66.15;63288.00;5073394;28;20197;-78
2022/09/18 15:58:42;;;;;;;1.42;1.38;;;;;;;12.40;66.71;63276.63;5058920;28;20272;-78
2022/09/18 16:01:19;;;;;;;0.80;0.80;;;;;;;12.34;67.52;63270.41;5045181;28;20550;-77
2022/09/18 16:03:47;;;;;;;1.40;1.40;;;;;;;12.19;68.71;63249.75;5056391;28;20229;-78
2022/09/18 16:06:26;;;;;;;1.85;1.52;;;;;;;12.13;69.57;63249.16;5055182;28;20245;-79
2022/09/18 16:08:56;;;;;;;1.90;1.80;;;;;;;12.05;70.53;63240.88;5046706;28;20252;-79
2022/09/18 16:11:38;;;;;;;2.42;1.73;;;;;;;11.95;71.71;63233.06;5038586;28;20203;-79
2022/09/18 16:14:39;;;;;;;4.90;3.90;;;;;;;11.93;73.72;63230.47;5042188;28;20236;-76
2022/09/18 16:18:02;;;;;;;2.00;1.90;;;;;;;11.91;74.85;63223.81;5038180;28;20435;-80
2022/09/18 16:20:33;;;;;;;4.88;2.10;;;;;;;11.82;76.21;63213.97;4957808;28;20316;-78
2022/09/18 16:23:23;;;;;;;2.97;2.20;;;;;;;11.79;76.31;63211.38;4953721;28;20251;-77
2022/09/18 16:26:11;;;;;;;3.30;3.10;;;;;;;11.77;74.83;63209.31;5008387;28;20495;-76
2022/09/18 16:28:41;;;;;;;2.20;2.10;;;;;;;11.66;71.78;63202.50;5038720;28;20222;-77
2022/09/18 16:31:11;;;;;;;1.95;1.85;;;;;;;11.54;70.96;63188.03;5037503;28;20244;-77
2022/09/18 16:33:49;;;;;;;2.20;2.05;;;;;;;11.36;70.11;63172.44;5036505;28;20210;-76
2022/09/18 16:36:26;;;;;;;1.63;1.52;;;;;;;11.35;69.63;63173.44;5046859;28;20256;-76
2022/09/18 16:38:53;;;;;;;1.90;1.80;;;;;;;11.33;69.19;63166.78;5040172;28;20444;-76
2022/09/18 16:41:20;;;;;;;5.80;2.53;;;;;;;11.32;70.04;63170.34;5031014;28;20222;-78
2022/09/18 16:43:48;;;;;;;3.17;1.75;;;;;;;11.29;71.24;63164.66;5038115;28;20269;-79
2022/09/18 16:46:19;;;;;;;1.80;1.70;;;;;;;11.24;69.35;63160.00;5035316;28;20206;-77
2022/09/18 16:48:47;;;;;;;1.90;1.80;;;;;;;11.18;68.92;63153.28;5032176;28;20242;-78
2022/09/18 16:51:14;;;;;;;2.15;2.05;;;;;;;11.13;68.78;63151.16;5040850;28;20202;-77
2022/09/18 16:53:41;;;;;;;1.92;1.27;;;;;;;11.03;66.04;63135.72;5051814;28;20224;-79
2022/09/18 16:56:12;;;;;;;2.25;1.83;;;;;;;11.03;66.57;63135.19;5040724;28;20266;-78
2022/09/18 16:58:40;;;;;;;1.95;1.85;;;;;;;10.97;67.55;63126.97;5047391;28;20232;-79
2022/09/18 17:01:07;;;;;;;2.38;1.33;;;;;;;10.93;65.55;63125.34;5042545;28;20349;-82
2022/09/18 17:03:36;;;;;;;1.75;1.45;;;;;;;10.88;65.72;63117.13;5036471;28;20293;-78
2022/09/18 17:06:03;;;;;;;2.45;1.20;;;;;;;10.78;64.24;63109.31;5049844;28;20228;-77
2022/09/18 17:08:30;;;;;;;1.05;1.05;;;;;;;10.80;63.97;63109.38;5036817;28;20229;-77
2022/09/18 17:10:58;;;;;;;2.15;1.23;;;;;;;10.78;62.97;63109.31;5036014;28;20272;-78
2022/09/18 17:13:25;;;;;;;1.35;1.23;;;;;;;10.84;63.45;63118.06;5041457;28;20218;-77
2022/09/18 17:15:52;;;;;;;1.30;1.30;;;;;;;10.86;63.08;63117.59;5036326;28;20364;-78
2022/09/18 17:18:19;;;;;;;1.10;1.10;;;;;;;10.82;62.79;63113.97;5038615;28;20226;-77
2022/09/18 17:20:47;;;;;;;2.25;2.05;;;;;;;10.86;62.94;63117.59;5028623;28;20457;-78
2022/09/18 17:23:14;;;;;;;3.30;3.03;;;;;;;10.82;63.59;63110.91;5046154;28;20443;-78
2022/09/18 17:25:41;;;;;;;2.80;2.60;;;;;;;10.82;63.55;63113.47;5045140;28;20209;-77
2022/09/18 17:28:09;;;;;;;2.92;2.70;;;;;;;10.84;65.55;63115.50;5041336;28;20213;-79
2022/09/18 17:30:41;;;;;;;1.85;1.75;;;;;;;10.77;65.48;63108.28;5038628;28;20232;-77
2022/09/18 17:33:08;;;;;;;1.60;1.60;;;;;;;10.69;66.90;63100.50;5047275;28;20553;-79
2022/09/18 17:35:36;;;;;;;1.80;1.70;;;;;;;10.53;68.87;63086.50;5048875;28;20190;-77
2022/09/18 17:38:04;;;;;;;5.70;2.35;;;;;;;10.59;69.16;63092.19;5050438;28;20214;-80
2022/09/18 17:40:31;;;;;;;2.47;2.10;;;;;;;10.54;69.57;63084.47;5045158;28;20202;-77
2022/09/18 17:42:58;;;;;;;2.03;1.88;;;;;;;10.49;66.23;63080.31;5044646;28;20252;-77
2022/09/18 17:45:26;;;;;;;1.50;1.40;;;;;;;10.46;66.41;63079.78;5046900;28;20186;-77
2022/09/18 17:47:53;;;;;;;1.77;1.67;;;;;;;10.43;67.96;63076.16;5051939;28;20294;-76
2022/09/18 17:50:21;;;;;;;1.90;1.80;;;;;;;10.39;68.05;63066.91;5039175;28;20240;-78
2022/09/18 17:52:48;;;;;;;1.80;1.70;;;;;;;10.36;68.91;63066.88;5037463;28;20218;-76
2022/09/18 17:55:17;;;;;;;1.55;1.45;;;;;;;10.41;68.49;63072.06;5034017;28;20260;-78
2022/09/18 17:57:44;;;;;;;1.63;1.52;;;;;;;10.45;69.69;63078.75;5045371;28;20224;-78
2022/09/18 18:00:11;;;;;;;2.42;1.63;;;;;;;10.39;73.53;63074.53;5041788;28;20207;-78
2022/09/18 18:02:38;;;;;;;1.50;1.50;;;;;;;10.33;70.41;63063.78;4984624;28;20228;-77
2022/09/18 18:05:06;;;;;;;2.58;2.38;;;;;;;10.32;68.05;63062.22;4993187;28;20200;-77